Time;durP1;ratioP1;P1;durP2;ratioP2;P2;SDS_P1;SDS_P2;PMS_P1;PMS_P2;Temp;Humidity;BMP_temperature;BMP_pressure;BME280_temperature;BME280_humidity;BME280_pressure;Samples;Min_cycle;Max_cycle;Signal;HPM_P1;HPM_P2
2023/06/24 00:01:26;;;;;;;2.10;1.20;;;;;;;;;;5011387;28;20033;-78
2023/06/24 00:03:53;;;;;;;1.83;1.60;;;;;;;;;;5012467;28;20121;-77
2023/06/24 00:06:25;;;;;;;2.10;1.75;;;;;;;;;;5011996;28;20034;-76
2023/06/24 00:08:52;;;;;;;2.45;1.60;;;;;;;;;;5012822;28;20116;-77
2023/06/24 00:11:18;;;;;;;3.13;2.00;;;;;;;;;;5010789;28;20033;-77
2023/06/24 00:13:44;;;;;;;3.35;1.83;;;;;;;;;;5007717;28;20506;-75
2023/06/24 00:16:10;;;;;;;1.77;1.55;;;;;;;;;;5003439;28;20358;-77
2023/06/24 00:18:37;;;;;;;2.58;1.88;;;;;;;;;;5011725;28;20033;-77
2023/06/24 00:21:04;;;;;;;2.05;1.70;;;;;;;;;;5012141;28;20087;-77
2023/06/24 00:23:34;;;;;;;2.15;1.55;;;;;;;;;;5011749;28;20383;-78
2023/06/24 00:26:00;;;;;;;3.13;1.88;;;;;;;;;;5012442;28;20042;-77
2023/06/24 00:28:26;;;;;;;3.83;2.35;;;;;;;;;;5010669;28;20029;-78
2023/06/24 00:30:52;;;;;;;2.30;1.98;;;;;;;;;;5010766;28;20025;-80
2023/06/24 00:33:19;;;;;;;3.67;2.20;;;;;;;;;;5010514;28;20416;-77
2023/06/24 00:35:45;;;;;;;3.13;2.75;;;;;;;;;;5009534;28;20036;-76
2023/06/24 00:38:11;;;;;;;4.93;2.28;;;;;;;;;;5012497;28;20029;-77
2023/06/24 00:40:37;;;;;;;2.22;1.85;;;;;;;;;;5012083;28;20030;-76
2023/06/24 00:43:04;;;;;;;2.58;2.17;;;;;;;;;;5011704;28;20125;-78
2023/06/24 00:45:32;;;;;;;2.30;1.85;;;;;;;;;;4994406;28;20398;-77
2023/06/24 00:47:58;;;;;;;3.95;2.60;;;;;;;;;;5010551;28;20041;-77
2023/06/24 00:50:24;;;;;;;2.65;2.17;;;;;;;;;;5011042;28;20434;-77
2023/06/24 00:52:49;;;;;;;3.47;2.25;;;;;;;;;;5011594;28;20380;-80
2023/06/24 00:55:17;;;;;;;3.08;2.00;;;;;;;;;;5010166;28;20463;-77
2023/06/24 00:57:44;;;;;;;4.13;2.97;;;;;;;;;;5012247;28;20033;-77
2023/06/24 01:00:17;;;;;;;3.65;2.40;;;;;;;;;;5010173;28;20045;-77
2023/06/24 01:02:42;;;;;;;3.70;2.72;;;;;;;;;;5011561;28;20022;-80
2023/06/24 01:05:12;;;;;;;2.33;2.03;;;;;;;;;;5009648;28;20370;-77
2023/06/24 01:07:38;;;;;;;4.85;2.25;;;;;;;;;;5011046;28;20469;-78
2023/06/24 01:10:07;;;;;;;6.75;2.88;;;;;;;;;;5009379;28;20442;-78
2023/06/24 01:12:43;;;;;;;3.03;2.38;;;;;;;;;;5005051;28;20056;-77
2023/06/24 01:15:10;;;;;;;4.45;2.50;;;;;;;;;;4990534;28;20033;-78
2023/06/24 01:17:56;;;;;;;2.75;2.33;;;;;;;;;;5010101;28;20102;-79
2023/06/24 01:20:28;;;;;;;3.97;2.20;;;;;;;;;;5011070;28;20048;-79
2023/06/24 01:23:14;;;;;;;3.80;2.78;;;;;;;;;;5009673;28;20056;-76
2023/06/24 01:26:06;;;;;;;4.50;2.67;;;;;;;;;;5010869;28;20507;-78
2023/06/24 01:28:38;;;;;;;;;;;;;;;;;;5010298;28;20033;-79
2023/06/24 01:31:19;;;;;;;4.43;2.90;;;;;;;;;;5011176;28;19913;-76
2023/06/24 01:33:55;;;;;;;4.32;2.53;;;;;;;;;;5009482;28;20026;-75
2023/06/24 01:36:24;;;;;;;3.58;2.80;;;;;;;;;;5009276;28;20037;-78
2023/06/24 01:38:58;;;;;;;3.55;2.53;;;;;;;;;;5009041;28;20386;-75
2023/06/24 01:41:31;;;;;;;2.92;2.40;;;;;;;;;;5008949;28;20068;-76
2023/06/24 01:43:58;;;;;;;3.63;2.75;;;;;;;;;;5010678;28;20124;-78
2023/06/24 01:46:25;;;;;;;4.28;2.97;;;;;;;;;;5010374;28;20441;-75
2023/06/24 01:48:56;;;;;;;5.18;2.90;;;;;;;;;;4992937;28;20064;-77
2023/06/24 01:51:23;;;;;;;3.17;2.53;;;;;;;;;;5010587;28;20025;-79
2023/06/24 01:53:52;;;;;;;3.10;2.45;;;;;;;;;;5010508;28;20034;-79
2023/06/24 01:56:20;;;;;;;3.42;2.60;;;;;;;;;;5011457;28;20030;-77
2023/06/24 01:58:48;;;;;;;3.25;2.83;;;;;;;;;;5010669;28;20354;-77
2023/06/24 02:01:15;;;;;;;4.78;2.72;;;;;;;;;;5010852;28;20033;-76
2023/06/24 02:03:42;;;;;;;3.30;2.78;;;;;;;;;;5010554;28;20555;-77
2023/06/24 02:06:09;;;;;;;3.38;2.50;;;;;;;;;;5010086;28;20018;-79
2023/06/24 02:08:37;;;;;;;3.75;2.90;;;;;;;;;;5009322;28;20022;-78
2023/06/24 02:11:04;;;;;;;5.05;2.90;;;;;;;;;;5009998;28;20053;-78
2023/06/24 02:13:32;;;;;;;4.03;2.97;;;;;;;;;;5008498;28;20060;-77
2023/06/24 02:16:00;;;;;;;6.13;3.13;;;;;;;;;;5010027;28;20049;-78
2023/06/24 02:18:27;;;;;;;10.02;3.58;;;;;;;;;;5010323;28;20390;-77
2023/06/24 02:20:53;;;;;;;6.65;2.58;;;;;;;;;;5009543;28;20026;-81
2023/06/24 02:23:22;;;;;;;5.13;3.05;;;;;;;;;;5008709;28;20061;-78
2023/06/24 02:25:49;;;;;;;3.63;2.88;;;;;;;;;;5009823;28;20144;-77
2023/06/24 02:28:15;;;;;;;5.57;2.60;;;;;;;;;;4992425;28;20029;-76
2023/06/24 02:30:43;;;;;;;3.67;1.88;;;;;;;;;;5008617;28;20032;-78
2023/06/24 02:33:09;;;;;;;2.53;2.03;;;;;;;;;;5008706;28;20401;-77
2023/06/24 02:35:34;;;;;;;2.45;2.03;;;;;;;;;;5008873;28;20025;-78
2023/06/24 02:38:00;;;;;;;3.55;2.17;;;;;;;;;;5010119;28;20052;-79
2023/06/24 02:40:27;;;;;;;2.00;1.73;;;;;;;;;;5010075;28;20077;-77
2023/06/24 02:42:52;;;;;;;3.10;2.17;;;;;;;;;;5008843;28;20048;-77
2023/06/24 02:45:18;;;;;;;2.20;1.75;;;;;;;;;;5009912;28;20025;-77
2023/06/24 02:47:46;;;;;;;5.32;2.33;;;;;;;;;;5009933;28;20026;-79
2023/06/24 02:50:12;;;;;;;3.90;1.90;;;;;;;;;;5009853;28;20065;-79
2023/06/24 02:52:38;;;;;;;4.93;2.08;;;;;;;;;;5008204;28;20026;-77
2023/06/24 02:55:05;;;;;;;5.53;3.72;;;;;;;;;;5008954;28;20465;-77
2023/06/24 02:57:31;;;;;;;2.92;2.10;;;;;;;;;;5009814;28;20065;-77
2023/06/24 02:59:57;;;;;;;2.78;1.83;;;;;;;;;;5013314;28;20052;-77
2023/06/24 03:02:23;;;;;;;2.72;2.00;;;;;;;;;;5013442;28;20041;-77
2023/06/24 03:04:51;;;;;;;3.78;2.22;;;;;;;;;;5012349;28;20132;-77
2023/06/24 03:07:20;;;;;;;4.28;1.42;;;;;;;;;;5013195;28;20030;-76
2023/06/24 03:09:46;;;;;;;2.72;2.22;;;;;;;;;;5013886;28;20030;-77
2023/06/24 03:12:12;;;;;;;4.20;1.73;;;;;;;;;;5013377;28;20076;-77
2023/06/24 03:14:38;;;;;;;2.05;1.85;;;;;;;;;;5011962;28;20064;-77
2023/06/24 03:17:03;;;;;;;2.58;1.77;;;;;;;;;;4996045;28;20107;-77
2023/06/24 03:19:29;;;;;;;2.45;2.15;;;;;;;;;;5013254;28;20030;-77
2023/06/24 03:21:54;;;;;;;3.80;2.53;;;;;;;;;;5012807;28;20030;-77
2023/06/24 03:24:20;;;;;;;4.00;2.47;;;;;;;;;;5012186;28;20140;-78
2023/06/24 03:26:46;;;;;;;3.10;2.35;;;;;;;;;;5011890;28;20026;-75
2023/06/24 03:29:11;;;;;;;3.25;2.30;;;;;;;;;;5012978;28;20037;-76
2023/06/24 03:31:37;;;;;;;3.42;2.40;;;;;;;;;;5011621;28;20104;-77
2023/06/24 03:34:03;;;;;;;4.22;2.05;;;;;;;;;;5011874;28;20033;-76
2023/06/24 03:36:29;;;;;;;2.92;2.13;;;;;;;;;;5011957;28;20084;-77
2023/06/24 03:38:54;;;;;;;4.00;2.25;;;;;;;;;;5013307;28;20105;-78
2023/06/24 03:41:20;;;;;;;7.65;3.10;;;;;;;;;;5012401;28;20425;-77
2023/06/24 03:43:46;;;;;;;5.53;3.58;;;;;;;;;;5012923;28;20112;-76
2023/06/24 03:46:12;;;;;;;4.63;2.92;;;;;;;;;;5011396;28;20037;-78
2023/06/24 03:48:39;;;;;;;3.13;2.38;;;;;;;;;;5011329;28;20044;-78
2023/06/24 03:51:04;;;;;;;4.85;2.97;;;;;;;;;;5013024;28;20036;-78
2023/06/24 03:53:30;;;;;;;6.13;3.47;;;;;;;;;;5011278;28;20519;-77
2023/06/24 03:55:55;;;;;;;4.90;3.08;;;;;;;;;;5012768;28;20485;-74
2023/06/24 03:58:21;;;;;;;8.43;3.42;;;;;;;;;;5012203;28;20058;-77
2023/06/24 04:00:49;;;;;;;5.05;3.25;;;;;;;;;;5012925;28;20038;-78
2023/06/24 04:03:18;;;;;;;6.00;3.97;;;;;;;;;;5012826;28;20470;-77
2023/06/24 04:05:44;;;;;;;3.80;3.28;;;;;;;;;;5012489;28;20049;-77
2023/06/24 04:08:09;;;;;;;5.60;3.13;;;;;;;;;;5011130;28;20034;-76
2023/06/24 04:10:35;;;;;;;5.75;3.78;;;;;;;;;;5013042;28;20111;-79
2023/06/24 04:13:00;;;;;;;5.45;4.50;;;;;;;;;;5011971;28;20034;-78
2023/06/24 04:15:26;;;;;;;6.05;3.75;;;;;;;;;;5012319;28;20575;-79
2023/06/24 04:17:51;;;;;;;6.90;3.92;;;;;;;;;;5011895;28;20036;-77
2023/06/24 04:20:16;;;;;;;17.38;4.30;;;;;;;;;;5012090;28;20033;-76
2023/06/24 04:22:42;;;;;;;8.40;4.45;;;;;;;;;;5010679;28;20216;-77
2023/06/24 04:25:08;;;;;;;7.85;5.07;;;;;;;;;;5012255;28;20030;-79
2023/06/24 04:27:34;;;;;;;7.28;4.50;;;;;;;;;;5010431;28;20038;-78
2023/06/24 04:30:01;;;;;;;8.82;5.10;;;;;;;;;;5011674;28;20030;-77
2023/06/24 04:32:26;;;;;;;7.35;4.95;;;;;;;;;;5010892;28;20029;-77
2023/06/24 04:34:52;;;;;;;7.60;4.72;;;;;;;;;;5011790;28;20026;-76
2023/06/24 04:37:18;;;;;;;7.80;5.53;;;;;;;;;;5012112;28;20030;-77
2023/06/24 04:39:44;;;;;;;10.75;5.47;;;;;;;;;;5011597;28;20425;-78
2023/06/24 04:42:10;;;;;;;8.68;5.15;;;;;;;;;;5011942;28;20036;-77
2023/06/24 04:44:36;;;;;;;8.55;5.07;;;;;;;;;;5011997;28;20029;-78
2023/06/24 04:47:02;;;;;;;13.20;5.43;;;;;;;;;;5010235;28;20116;-77
2023/06/24 04:49:28;;;;;;;9.65;5.05;;;;;;;;;;5011556;28;20113;-77
2023/06/24 04:51:53;;;;;;;8.45;5.07;;;;;;;;;;5011609;28;20045;-77
2023/06/24 04:54:19;;;;;;;6.45;5.15;;;;;;;;;;5011333;28;20034;-75
2023/06/24 04:56:45;;;;;;;9.45;5.30;;;;;;;;;;5010354;28;20030;-78
2023/06/24 04:59:10;;;;;;;9.15;5.30;;;;;;;;;;5011852;28;20025;-77
2023/06/24 05:01:36;;;;;;;7.97;5.05;;;;;;;;;;5009390;28;20068;-79
2023/06/24 05:04:02;;;;;;;8.52;6.00;;;;;;;;;;5011349;28;20045;-78
2023/06/24 05:06:27;;;;;;;9.10;5.70;;;;;;;;;;5009981;28;20489;-78
2023/06/24 05:08:53;;;;;;;8.93;5.70;;;;;;;;;;5009879;28;20037;-76
2023/06/24 05:11:18;;;;;;;9.90;5.72;;;;;;;;;;5011272;28;20108;-77
2023/06/24 05:13:44;;;;;;;9.88;5.43;;;;;;;;;;5009961;28;20029;-79
2023/06/24 05:16:09;;;;;;;13.38;5.70;;;;;;;;;;5009674;28;20029;-78
2023/06/24 05:18:35;;;;;;;11.65;5.95;;;;;;;;;;5009739;28;20033;-78
2023/06/24 05:21:01;;;;;;;11.63;5.63;;;;;;;;;;5009236;28;20235;-79
2023/06/24 05:23:27;;;;;;;7.55;4.95;;;;;;;;;;5009696;28;20049;-76
2023/06/24 05:25:52;;;;;;;9.18;5.80;;;;;;;;;;5009769;28;20037;-78
2023/06/24 05:28:18;;;;;;;8.25;5.63;;;;;;;;;;5010495;28;20112;-78
2023/06/24 05:30:45;;;;;;;7.95;5.72;;;;;;;;;;5011286;28;20732;-77
2023/06/24 05:33:11;;;;;;;14.93;6.57;;;;;;;;;;5011206;28;20029;-76
2023/06/24 05:35:41;;;;;;;13.18;5.60;;;;;;;;;;5009564;28;20044;-77
2023/06/24 05:38:07;;;;;;;12.30;5.50;;;;;;;;;;5009948;28;20088;-79
2023/06/24 05:40:33;;;;;;;11.93;6.30;;;;;;;;;;5009779;28;20029;-77
2023/06/24 05:43:00;;;;;;;12.38;6.25;;;;;;;;;;5008497;28;20114;-75
2023/06/24 05:45:26;;;;;;;13.90;5.93;;;;;;;;;;5009199;28;20281;-77
2023/06/24 05:47:52;;;;;;;12.48;6.50;;;;;;;;;;5009116;28;20025;-76
2023/06/24 05:50:17;;;;;;;10.05;5.38;;;;;;;;;;5009765;28;20073;-77
2023/06/24 05:52:43;;;;;;;9.63;5.97;;;;;;;;;;5010751;28;20025;-76
2023/06/24 05:55:09;;;;;;;8.65;5.95;;;;;;;;;;5010889;28;20053;-79
2023/06/24 05:57:34;;;;;;;11.07;5.60;;;;;;;;;;5010665;28;20021;-78
2023/06/24 06:00:00;;;;;;;12.02;7.30;;;;;;;;;;5008726;28;20041;-76
2023/06/24 06:02:25;;;;;;;13.93;6.88;;;;;;;;;;5010153;28;20061;-78
2023/06/24 06:05:11;;;;;;;;;;;;;;;;;;;;;
2023/06/24 06:08:03;;;;;;;;;;;;;;;;;;;;;
2023/06/24 06:13:43;;;;;;;13.77;6.85;;;;;;;;;;5018486;28;20032;-75
2023/06/24 06:16:26;;;;;;;13.55;7.05;;;;;;;;;;5019083;28;20042;-79
2023/06/24 06:19:34;;;;;;;12.60;7.13;;;;;;;;;;5016969;28;20056;-78
2023/06/24 06:25:06;;;;;;;13.95;8.98;;;;;;;;;;4997709;28;20045;-77
2023/06/24 06:28:47;;;;;;;11.73;8.68;;;;;;;;;;5018565;28;20029;-76
2023/06/24 06:32:12;;;;;;;12.88;8.48;;;;;;;;;;4976255;28;20064;-77
2023/06/24 06:35:03;;;;;;;14.25;9.50;;;;;;;;;;4985970;28;20096;-78
2023/06/24 06:37:54;;;;;;;;;;;;;;;;;;;;;
2023/06/24 06:40:28;;;;;;;15.90;9.55;;;;;;;;;;5016855;28;20101;-78
2023/06/24 06:43:22;;;;;;;15.30;9.85;;;;;;;;;;5014227;28;20025;-78
2023/06/24 06:45:54;;;;;;;14.68;9.95;;;;;;;;;;5015433;28;20065;-79
2023/06/24 06:49:11;;;;;;;;;;;;;;;;;;;;;
2023/06/24 06:56:01;;;;;;;;;;;;;;;;;;;;;
2023/06/24 06:59:10;;;;;;;;;;;;;;;;;;;;;
2023/06/24 07:02:16;;;;;;;17.30;10.02;;;;;;;;;;5019705;28;20128;-76
2023/06/24 07:04:42;;;;;;;15.65;10.90;;;;;;;;;;5003945;28;20096;-79
2023/06/24 07:07:13;;;;;;;14.15;10.93;;;;;;;;;;4999047;28;20456;-82
2023/06/24 07:09:56;;;;;;;;;;;;;;;;;;;;;
2023/06/24 07:12:29;;;;;;;22.67;11.80;;;;;;;;;;5019575;28;20017;-81
2023/06/24 07:15:10;;;;;;;15.00;12.05;;;;;;;;;;5019057;28;20041;-83
2023/06/24 07:18:17;;;;;;;;;;;;;;;;;;;;;
2023/06/24 07:21:01;;;;;;;18.20;12.15;;;;;;;;;;4922329;29;20107;-80
2023/06/24 07:24:25;;;;;;;;;;;;;;;;;;;;;
2023/06/24 07:26:52;;;;;;;20.05;11.95;;;;;;;;;;4990807;28;20124;-81
2023/06/24 07:29:20;;;;;;;15.80;12.15;;;;;;;;;;5014108;28;20366;-81
2023/06/24 07:31:45;;;;;;;23.25;12.45;;;;;;;;;;5015006;28;20101;-81
2023/06/24 07:34:11;;;;;;;19.27;11.82;;;;;;;;;;5015197;28;20030;-80
2023/06/24 07:36:37;;;;;;;20.77;12.00;;;;;;;;;;5015357;28;20169;-82
2023/06/24 07:39:03;;;;;;;19.42;11.25;;;;;;;;;;4993937;28;20132;-80
2023/06/24 07:41:29;;;;;;;17.38;11.00;;;;;;;;;;4994874;28;20481;-83
2023/06/24 07:43:55;;;;;;;20.35;11.45;;;;;;;;;;5013739;28;20030;-81
2023/06/24 07:46:23;;;;;;;15.77;11.25;;;;;;;;;;5017602;28;20106;-82
2023/06/24 07:48:50;;;;;;;15.85;11.45;;;;;;;;;;5017688;28;20036;-80
2023/06/24 07:51:16;;;;;;;18.92;11.27;;;;;;;;;;5016136;28;20029;-82
2023/06/24 07:53:44;;;;;;;16.58;10.88;;;;;;;;;;5017008;28;20442;-83
2023/06/24 07:56:10;;;;;;;19.50;12.48;;;;;;;;;;5016744;28;20125;-80
2023/06/24 07:58:38;;;;;;;17.30;12.13;;;;;;;;;;5016864;28;20485;-82
2023/06/24 08:01:04;;;;;;;19.80;11.98;;;;;;;;;;5015044;28;20022;-81
2023/06/24 08:03:34;;;;;;;16.23;12.38;;;;;;;;;;5016834;28;20045;-81
2023/06/24 08:05:59;;;;;;;18.60;12.25;;;;;;;;;;5017381;28;20022;-80
2023/06/24 08:08:25;;;;;;;17.55;11.98;;;;;;;;;;5016978;28;20034;-82
2023/06/24 08:10:50;;;;;;;15.48;12.07;;;;;;;;;;5015462;28;20021;-80
2023/06/24 08:13:17;;;;;;;19.52;11.35;;;;;;;;;;5018056;28;20354;-81
2023/06/24 08:15:44;;;;;;;16.48;11.98;;;;;;;;;;5017488;28;20028;-80
2023/06/24 08:18:10;;;;;;;14.80;11.35;;;;;;;;;;5016030;28;20036;-82
2023/06/24 08:20:36;;;;;;;13.93;11.18;;;;;;;;;;5015401;28;20077;-80
2023/06/24 08:23:02;;;;;;;16.55;10.82;;;;;;;;;;5017780;28;20026;-79
2023/06/24 08:25:28;;;;;;;15.32;11.27;;;;;;;;;;5016237;28;20034;-81
2023/06/24 08:27:58;;;;;;;13.30;10.57;;;;;;;;;;5000201;28;20056;-81
2023/06/24 08:30:24;;;;;;;13.18;9.52;;;;;;;;;;5016708;28;20091;-81
2023/06/24 08:32:53;;;;;;;11.93;9.75;;;;;;;;;;5017165;28;20478;-81
2023/06/24 08:35:18;;;;;;;9.60;8.15;;;;;;;;;;5016040;28;20112;-81
2023/06/24 08:37:44;;;;;;;11.82;8.27;;;;;;;;;;5015641;28;20057;-81
2023/06/24 08:40:10;;;;;;;11.60;8.05;;;;;;;;;;5015931;28;20029;-80
2023/06/24 08:42:38;;;;;;;11.45;8.05;;;;;;;;;;5016361;28;20022;-79
2023/06/24 08:45:05;;;;;;;9.43;7.43;;;;;;;;;;5015484;28;20497;-81
2023/06/24 08:47:31;;;;;;;11.35;8.85;;;;;;;;;;5016418;28;20028;-80
2023/06/24 08:50:04;;;;;;;13.15;7.90;;;;;;;;;;5015267;28;20104;-81
2023/06/24 08:52:37;;;;;;;9.35;7.47;;;;;;;;;;5015491;28;20036;-81
2023/06/24 08:55:06;;;;;;;11.25;6.55;;;;;;;;;;5016038;28;20033;-80
2023/06/24 08:57:32;;;;;;;14.00;7.72;;;;;;;;;;5014279;28;20025;-79
2023/06/24 08:59:57;;;;;;;9.40;7.15;;;;;;;;;;5013798;28;20033;-81
2023/06/24 09:02:27;;;;;;;14.35;6.95;;;;;;;;;;5015408;28;20382;-81
2023/06/24 09:04:56;;;;;;;8.43;6.55;;;;;;;;;;5015423;28;20038;-83
2023/06/24 09:07:28;;;;;;;8.80;7.13;;;;;;;;;;5014927;28;20025;-80
2023/06/24 09:10:00;;;;;;;9.85;7.60;;;;;;;;;;5014148;28;20038;-83
2023/06/24 09:12:26;;;;;;;11.48;9.68;;;;;;;;;;5014782;28;20125;-81
2023/06/24 09:14:52;;;;;;;12.65;9.27;;;;;;;;;;5014342;28;20112;-79
2023/06/24 09:17:22;;;;;;;12.27;8.63;;;;;;;;;;5014647;28;20027;-80
2023/06/24 09:19:48;;;;;;;11.95;8.75;;;;;;;;;;5014871;28;20370;-81
2023/06/24 09:22:17;;;;;;;12.13;8.93;;;;;;;;;;5014320;28;20284;-81
2023/06/24 09:24:50;;;;;;;10.60;8.85;;;;;;;;;;5014305;28;20076;-82
2023/06/24 09:27:19;;;;;;;11.30;8.85;;;;;;;;;;5015363;28;20025;-81
2023/06/24 09:29:47;;;;;;;14.60;9.43;;;;;;;;;;5014697;28;20374;-81
2023/06/24 09:32:13;;;;;;;12.23;8.85;;;;;;;;;;5015073;28;20493;-80
2023/06/24 09:34:39;;;;;;;11.75;9.73;;;;;;;;;;5014007;28;20096;-82
2023/06/24 09:37:05;;;;;;;11.23;9.73;;;;;;;;;;5016269;28;20034;-81
2023/06/24 09:39:40;;;;;;;13.25;9.52;;;;;;;;;;5013583;28;20040;-79
2023/06/24 09:42:13;;;;;;;10.85;8.65;;;;;;;;;;5013623;28;20034;-79
2023/06/24 09:44:42;;;;;;;10.50;8.70;;;;;;;;;;5014134;28;20042;-81
2023/06/24 09:47:07;;;;;;;16.08;10.07;;;;;;;;;;4997458;28;20034;-81
2023/06/24 09:49:33;;;;;;;15.77;11.25;;;;;;;;;;5014606;28;20037;-80
2023/06/24 09:52:05;;;;;;;13.45;9.57;;;;;;;;;;5013816;28;20430;-80
2023/06/24 09:54:31;;;;;;;14.50;9.93;;;;;;;;;;5013574;28;20061;-81
2023/06/24 09:57:02;;;;;;;12.45;9.23;;;;;;;;;;5014493;28;20120;-80
2023/06/24 09:59:30;;;;;;;21.27;11.57;;;;;;;;;;4997741;28;20168;-80
2023/06/24 10:01:57;;;;;;;12.45;9.77;;;;;;;;;;5012708;28;20123;-80
2023/06/24 10:04:23;;;;;;;11.27;8.65;;;;;;;;;;4999495;28;20034;-81
2023/06/24 10:06:49;;;;;;;12.32;9.02;;;;;;;;;;4994177;28;20470;-80
2023/06/24 10:09:17;;;;;;;9.52;8.15;;;;;;;;;;5005028;28;20137;-81
2023/06/24 10:11:48;;;;;;;27.75;12.35;;;;;;;;;;5030624;28;20049;-82
2023/06/24 10:14:18;;;;;;;11.82;8.82;;;;;;;;;;5029806;28;20080;-81
2023/06/24 10:16:44;;;;;;;11.98;8.85;;;;;;;;;;5013192;28;20037;-81
2023/06/24 10:19:10;;;;;;;8.75;7.85;;;;;;;;;;5014111;28;20113;-83
2023/06/24 10:21:53;;;;;;;11.80;8.52;;;;;;;;;;5014762;28;20030;-81
2023/06/24 10:24:35;;;;;;;18.65;9.18;;;;;;;;;;5015877;28;20101;-80
2023/06/24 10:27:22;;;;;;;9.63;7.50;;;;;;;;;;5013397;28;20041;-82
2023/06/24 10:29:56;;;;;;;10.57;8.13;;;;;;;;;;5014108;28;20026;-80
2023/06/24 10:32:25;;;;;;;10.60;8.20;;;;;;;;;;5014040;28;20021;-82
2023/06/24 10:34:57;;;;;;;10.55;8.35;;;;;;;;;;5018526;28;20037;-82
2023/06/24 10:37:25;;;;;;;10.60;7.25;;;;;;;;;;4982954;28;20066;-83
2023/06/24 10:39:55;;;;;;;9.02;6.85;;;;;;;;;;5015075;28;20057;-82
2023/06/24 10:42:43;;;;;;;8.73;6.93;;;;;;;;;;5016027;28;20156;-82
2023/06/24 10:45:12;;;;;;;9.13;7.15;;;;;;;;;;5014118;28;20032;-81
2023/06/24 10:47:42;;;;;;;18.85;8.68;;;;;;;;;;5014827;28;20018;-81
2023/06/24 10:50:15;;;;;;;10.20;7.70;;;;;;;;;;5014334;28;20034;-80
2023/06/24 10:52:43;;;;;;;15.77;7.93;;;;;;;;;;5013433;28;20038;-80
2023/06/24 10:55:09;;;;;;;17.02;8.60;;;;;;;;;;5012990;28;20112;-81
2023/06/24 10:57:35;;;;;;;7.88;6.20;;;;;;;;;;5015958;28;20041;-80
2023/06/24 11:00:04;;;;;;;8.57;6.18;;;;;;;;;;5013381;28;20397;-84
2023/06/24 11:02:29;;;;;;;8.82;6.45;;;;;;;;;;5016062;28;20037;-81
2023/06/24 11:04:59;;;;;;;15.52;7.47;;;;;;;;;;5015154;28;20384;-81
2023/06/24 11:07:31;;;;;;;8.70;6.07;;;;;;;;;;5015424;28;20105;-83
2023/06/24 11:10:04;;;;;;;9.10;6.68;;;;;;;;;;5015240;28;20461;-82
2023/06/24 11:12:33;;;;;;;7.82;6.43;;;;;;;;;;5013728;28;20026;-81
2023/06/24 11:15:09;;;;;;;14.68;8.68;;;;;;;;;;5014312;28;20103;-81
2023/06/24 11:17:38;;;;;;;11.18;6.95;;;;;;;;;;5014111;28;20044;-83
2023/06/24 11:20:08;;;;;;;10.40;6.68;;;;;;;;;;5004476;28;20484;-82
2023/06/24 11:22:36;;;;;;;6.35;5.53;;;;;;;;;;5001612;28;20137;-81
2023/06/24 11:25:04;;;;;;;15.30;7.90;;;;;;;;;;5017555;28;20503;-80
2023/06/24 11:27:31;;;;;;;8.05;6.47;;;;;;;;;;5018375;28;20061;-81
2023/06/24 11:30:14;;;;;;;6.40;5.68;;;;;;;;;;5019896;28;20026;-83
2023/06/24 11:32:43;;;;;;;8.88;5.88;;;;;;;;;;5018157;28;20025;-81
2023/06/24 11:35:14;;;;;;;7.10;5.60;;;;;;;;;;5017489;28;20460;-81
2023/06/24 11:37:47;;;;;;;7.95;5.82;;;;;;;;;;5020629;28;20591;-80
2023/06/24 11:40:18;;;;;;;9.38;5.85;;;;;;;;;;4999670;28;20128;-83
2023/06/24 11:42:47;;;;;;;7.25;5.85;;;;;;;;;;5017779;28;20026;-81
2023/06/24 11:45:16;;;;;;;8.00;4.90;;;;;;;;;;5019775;28;20495;-82
2023/06/24 11:47:43;;;;;;;5.72;5.10;;;;;;;;;;5018254;28;20087;-82
2023/06/24 11:50:09;;;;;;;6.43;4.90;;;;;;;;;;5034886;28;20030;-83
2023/06/24 11:52:48;;;;;;;8.02;5.93;;;;;;;;;;5017640;28;20036;-82
2023/06/24 11:55:18;;;;;;;9.43;6.30;;;;;;;;;;5018067;28;20527;-82
2023/06/24 11:57:54;;;;;;;6.50;5.00;;;;;;;;;;5017763;28;20477;-81
2023/06/24 12:00:31;;;;;;;6.80;4.75;;;;;;;;;;5018139;28;20115;-82
2023/06/24 12:03:01;;;;;;;5.68;4.80;;;;;;;;;;5018574;28;20089;-81
2023/06/24 12:05:31;;;;;;;5.35;4.53;;;;;;;;;;5018673;28;20036;-83
2023/06/24 12:08:04;;;;;;;8.65;5.35;;;;;;;;;;5018358;28;20040;-82
2023/06/24 12:10:34;;;;;;;6.13;4.32;;;;;;;;;;5018184;28;20522;-84
2023/06/24 12:13:00;;;;;;;5.35;3.90;;;;;;;;;;5018831;28;20022;-81
2023/06/24 12:15:27;;;;;;;5.63;4.30;;;;;;;;;;5017973;28;20029;-83
2023/06/24 12:17:55;;;;;;;5.03;4.50;;;;;;;;;;5017535;28;20033;-82
2023/06/24 12:20:23;;;;;;;4.40;3.63;;;;;;;;;;5017187;28;20068;-84
2023/06/24 12:22:50;;;;;;;4.43;3.67;;;;;;;;;;5017280;28;20061;-82
2023/06/24 12:25:18;;;;;;;7.18;4.55;;;;;;;;;;5018642;28;20277;-83
2023/06/24 12:27:45;;;;;;;4.47;3.72;;;;;;;;;;5018759;28;20021;-82
2023/06/24 12:30:11;;;;;;;9.98;3.88;;;;;;;;;;5016131;28;20517;-82
2023/06/24 12:32:38;;;;;;;4.43;3.53;;;;;;;;;;5019556;28;20552;-83
2023/06/24 12:35:04;;;;;;;6.90;4.22;;;;;;;;;;5018402;28;20105;-82
2023/06/24 12:37:33;;;;;;;6.90;4.20;;;;;;;;;;5019443;28;20026;-85
2023/06/24 12:40:06;;;;;;;4.50;3.70;;;;;;;;;;5016317;28;20057;-81
2023/06/24 12:42:32;;;;;;;6.72;3.78;;;;;;;;;;5018831;28;20034;-83
2023/06/24 12:44:57;;;;;;;5.43;3.78;;;;;;;;;;5016906;28;20120;-83
2023/06/24 12:47:23;;;;;;;3.88;3.30;;;;;;;;;;5017111;28;20037;-83
2023/06/24 12:49:52;;;;;;;4.95;3.55;;;;;;;;;;5017571;28;20030;-81
2023/06/24 12:52:19;;;;;;;6.85;3.33;;;;;;;;;;5017620;28;20492;-83
2023/06/24 12:54:50;;;;;;;10.10;3.95;;;;;;;;;;5017524;28;20026;-82
2023/06/24 12:57:20;;;;;;;3.92;3.47;;;;;;;;;;5017888;28;20505;-82
2023/06/24 12:59:55;;;;;;;5.97;4.32;;;;;;;;;;5019074;28;20048;-82
2023/06/24 13:02:21;;;;;;;6.85;3.53;;;;;;;;;;5017608;28;20044;-80
2023/06/24 13:04:47;;;;;;;7.80;3.63;;;;;;;;;;5019003;28;20101;-82
2023/06/24 13:07:13;;;;;;;6.18;3.67;;;;;;;;;;5018526;28;20040;-83
2023/06/24 13:09:38;;;;;;;4.32;3.53;;;;;;;;;;5019837;28;20082;-83
2023/06/24 13:12:09;;;;;;;3.80;3.22;;;;;;;;;;5018402;28;20095;-82
2023/06/24 13:14:35;;;;;;;7.13;3.67;;;;;;;;;;5017985;28;20026;-82
2023/06/24 13:17:00;;;;;;;3.72;3.13;;;;;;;;;;5011907;28;20028;-85
2023/06/24 13:19:29;;;;;;;4.43;3.78;;;;;;;;;;4998733;28;20049;-83
2023/06/24 13:21:57;;;;;;;8.60;4.18;;;;;;;;;;5000302;28;20023;-84
2023/06/24 13:24:23;;;;;;;5.35;3.40;;;;;;;;;;5012849;28;20140;-83
2023/06/24 13:26:48;;;;;;;5.88;3.47;;;;;;;;;;5017160;28;20061;-81
2023/06/24 13:29:19;;;;;;;6.57;3.85;;;;;;;;;;5018029;28;20040;-83
2023/06/24 13:31:53;;;;;;;6.25;3.33;;;;;;;;;;5018484;28;20059;-84
2023/06/24 13:34:19;;;;;;;6.80;3.75;;;;;;;;;;5021429;28;20091;-83
2023/06/24 13:36:49;;;;;;;4.43;3.50;;;;;;;;;;5017535;28;20034;-82
2023/06/24 13:39:18;;;;;;;6.38;4.45;;;;;;;;;;5017365;28;20485;-84
2023/06/24 13:41:53;;;;;;;4.50;3.40;;;;;;;;;;5018662;28;20064;-85
2023/06/24 13:44:18;;;;;;;5.10;3.88;;;;;;;;;;5018243;28;20513;-83
2023/06/24 13:46:44;;;;;;;3.92;3.22;;;;;;;;;;5017922;28;20290;-84
2023/06/24 13:49:10;;;;;;;3.72;3.40;;;;;;;;;;5032288;28;20147;-82
2023/06/24 13:51:37;;;;;;;4.43;4.00;;;;;;;;;;5017092;28;20030;-82
2023/06/24 13:54:05;;;;;;;4.43;3.90;;;;;;;;;;5016656;28;20014;-82
2023/06/24 13:56:31;;;;;;;5.95;4.07;;;;;;;;;;5018088;28;20026;-82
2023/06/24 13:59:00;;;;;;;5.70;4.05;;;;;;;;;;5018703;28;20476;-83
2023/06/24 14:01:28;;;;;;;4.47;3.28;;;;;;;;;;5016950;28;20022;-81
2023/06/24 14:03:54;;;;;;;5.05;3.72;;;;;;;;;;5015887;28;20030;-82
2023/06/24 14:06:21;;;;;;;4.95;3.58;;;;;;;;;;5016798;28;20065;-84
2023/06/24 14:08:53;;;;;;;7.07;3.55;;;;;;;;;;5000278;28;20030;-82
2023/06/24 14:11:18;;;;;;;4.15;3.67;;;;;;;;;;5016486;28;20025;-83
2023/06/24 14:13:45;;;;;;;5.45;4.10;;;;;;;;;;5013200;28;20036;-78
2023/06/24 14:16:13;;;;;;;6.68;4.00;;;;;;;;;;5012727;28;20030;-78
2023/06/24 14:18:42;;;;;;;4.35;3.95;;;;;;;;;;5011241;28;20022;-78
2023/06/24 14:21:07;;;;;;;7.32;5.75;;;;;;;;;;5012409;28;20022;-78
2023/06/24 14:23:34;;;;;;;4.20;3.75;;;;;;;;;;5024883;28;20462;-77
2023/06/24 14:26:02;;;;;;;5.22;4.25;;;;;;;;;;5012208;28;20540;-79
2023/06/24 14:28:28;;;;;;;7.00;4.40;;;;;;;;;;5010955;28;20022;-76
2023/06/24 14:30:54;;;;;;;4.63;3.72;;;;;;;;;;5011068;28;20026;-77
2023/06/24 14:33:19;;;;;;;6.00;4.32;;;;;;;;;;5011882;28;20038;-77
2023/06/24 14:35:45;;;;;;;4.45;4.05;;;;;;;;;;5010632;28;20037;-77
2023/06/24 14:38:17;;;;;;;6.07;4.70;;;;;;;;;;4994444;28;20028;-77
2023/06/24 14:40:43;;;;;;;4.18;3.78;;;;;;;;;;5011972;28;20062;-77
2023/06/24 14:43:08;;;;;;;4.18;3.75;;;;;;;;;;5011878;28;20049;-77
2023/06/24 14:45:34;;;;;;;5.32;4.68;;;;;;;;;;5010986;28;20030;-76
2023/06/24 14:48:00;;;;;;;5.63;4.50;;;;;;;;;;5011179;28;20203;-80
2023/06/24 14:50:28;;;;;;;6.75;4.93;;;;;;;;;;5012090;28;20481;-77
2023/06/24 14:52:54;;;;;;;9.48;4.88;;;;;;;;;;5010529;28;20030;-78
2023/06/24 14:55:20;;;;;;;6.75;5.13;;;;;;;;;;5014025;28;20034;-76
2023/06/24 14:57:45;;;;;;;5.32;4.82;;;;;;;;;;5014397;28;20072;-78
2023/06/24 15:00:12;;;;;;;5.32;4.60;;;;;;;;;;5015069;28;20037;-78
2023/06/24 15:02:38;;;;;;;7.43;5.45;;;;;;;;;;5015591;28;20049;-77
2023/06/24 15:05:04;;;;;;;8.18;4.65;;;;;;;;;;5013490;28;20066;-76
2023/06/24 15:07:29;;;;;;;7.60;5.82;;;;;;;;;;5015049;28;20025;-77
2023/06/24 15:10:01;;;;;;;7.15;5.40;;;;;;;;;;4997215;28;20068;-78